sensor_id;sensor_type;location;lat;lon;timestamp;P1;durP1;ratioP1;P2;durP2;ratioP2
7983;SDS011;4037;47.980;10.172;2023-09-18T00:02:25;4.67;;;4.00;;
7983;SDS011;4037;47.980;10.172;2023-09-18T00:04:53;4.37;;;3.97;;
7983;SDS011;4037;47.980;10.172;2023-09-18T00:07:19;9.27;;;3.90;;
7983;SDS011;4037;47.980;10.172;2023-09-18T00:09:45;4.30;;;3.57;;
7983;SDS011;4037;47.980;10.172;2023-09-18T00:12:11;4.93;;;3.63;;
7983;SDS011;4037;47.980;10.172;2023-09-18T00:14:37;4.17;;;3.43;;
7983;SDS011;4037;47.980;10.172;2023-09-18T00:17:03;5.87;;;3.70;;
7983;SDS011;4037;47.980;10.172;2023-09-18T00:19:29;4.03;;;3.23;;
7983;SDS011;4037;47.980;10.172;2023-09-18T00:21:57;3.70;;;3.10;;
7983;SDS011;4037;47.980;10.172;2023-09-18T00:24:25;3.63;;;3.13;;
7983;SDS011;4037;47.980;10.172;2023-09-18T00:26:51;3.90;;;3.20;;
7983;SDS011;4037;47.980;10.172;2023-09-18T00:29:18;4.10;;;3.23;;
7983;SDS011;4037;47.980;10.172;2023-09-18T00:31:44;4.13;;;3.00;;
7983;SDS011;4037;47.980;10.172;2023-09-18T00:34:10;4.00;;;2.87;;
7983;SDS011;4037;47.980;10.172;2023-09-18T00:36:36;4.37;;;3.17;;
7983;SDS011;4037;47.980;10.172;2023-09-18T00:39:03;3.93;;;3.30;;
7983;SDS011;4037;47.980;10.172;2023-09-18T00:41:29;3.40;;;2.93;;
7983;SDS011;4037;47.980;10.172;2023-09-18T00:43:55;4.70;;;3.43;;
7983;SDS011;4037;47.980;10.172;2023-09-18T00:46:22;4.17;;;3.23;;
7983;SDS011;4037;47.980;10.172;2023-09-18T00:48:48;7.17;;;3.13;;
7983;SDS011;4037;47.980;10.172;2023-09-18T00:51:14;4.03;;;3.33;;
7983;SDS011;4037;47.980;10.172;2023-09-18T00:53:43;5.60;;;3.17;;
7983;SDS011;4037;47.980;10.172;2023-09-18T00:56:09;4.27;;;3.33;;
7983;SDS011;4037;47.980;10.172;2023-09-18T00:58:35;4.13;;;3.43;;
7983;SDS011;4037;47.980;10.172;2023-09-18T01:01:03;5.10;;;3.50;;
7983;SDS011;4037;47.980;10.172;2023-09-18T01:03:29;6.40;;;3.17;;
7983;SDS011;4037;47.980;10.172;2023-09-18T01:05:55;4.73;;;3.17;;
7983;SDS011;4037;47.980;10.172;2023-09-18T01:08:22;3.93;;;2.70;;
7983;SDS011;4037;47.980;10.172;2023-09-18T01:10:52;2.77;;;2.57;;
7983;SDS011;4037;47.980;10.172;2023-09-18T01:13:21;3.70;;;2.90;;
7983;SDS011;4037;47.980;10.172;2023-09-18T01:15:54;4.87;;;2.93;;
7983;SDS011;4037;47.980;10.172;2023-09-18T01:18:20;4.93;;;4.00;;
7983;SDS011;4037;47.980;10.172;2023-09-18T01:20:46;4.17;;;2.87;;
7983;SDS011;4037;47.980;10.172;2023-09-18T01:23:12;3.67;;;2.97;;
7983;SDS011;4037;47.980;10.172;2023-09-18T01:25:38;3.40;;;2.80;;
7983;SDS011;4037;47.980;10.172;2023-09-18T01:28:04;4.30;;;2.87;;
7983;SDS011;4037;47.980;10.172;2023-09-18T01:30:30;5.60;;;2.67;;
7983;SDS011;4037;47.980;10.172;2023-09-18T01:32:57;4.70;;;2.63;;
7983;SDS011;4037;47.980;10.172;2023-09-18T01:35:23;3.70;;;2.83;;
7983;SDS011;4037;47.980;10.172;2023-09-18T01:37:55;3.93;;;2.80;;
7983;SDS011;4037;47.980;10.172;2023-09-18T01:40:21;3.53;;;2.80;;
7983;SDS011;4037;47.980;10.172;2023-09-18T01:42:48;3.63;;;2.73;;
7983;SDS011;4037;47.980;10.172;2023-09-18T01:45:14;3.67;;;2.50;;
7983;SDS011;4037;47.980;10.172;2023-09-18T01:47:40;4.10;;;3.10;;
7983;SDS011;4037;47.980;10.172;2023-09-18T01:50:06;2.83;;;2.50;;
7983;SDS011;4037;47.980;10.172;2023-09-18T01:52:32;3.47;;;2.70;;
7983;SDS011;4037;47.980;10.172;2023-09-18T01:55:02;2.50;;;2.30;;
7983;SDS011;4037;47.980;10.172;2023-09-18T01:57:31;3.07;;;2.13;;
7983;SDS011;4037;47.980;10.172;2023-09-18T01:59:57;3.57;;;2.97;;
7983;SDS011;4037;47.980;10.172;2023-09-18T02:02:23;4.33;;;2.90;;
7983;SDS011;4037;47.980;10.172;2023-09-18T02:04:49;3.30;;;2.63;;
7983;SDS011;4037;47.980;10.172;2023-09-18T02:07:15;4.23;;;2.57;;
7983;SDS011;4037;47.980;10.172;2023-09-18T02:09:41;4.63;;;2.63;;
7983;SDS011;4037;47.980;10.172;2023-09-18T02:12:07;3.50;;;2.70;;
7983;SDS011;4037;47.980;10.172;2023-09-18T02:14:33;5.17;;;2.90;;
7983;SDS011;4037;47.980;10.172;2023-09-18T02:16:59;3.00;;;2.40;;
7983;SDS011;4037;47.980;10.172;2023-09-18T02:19:25;3.63;;;2.63;;
7983;SDS011;4037;47.980;10.172;2023-09-18T02:21:51;4.13;;;2.70;;
7983;SDS011;4037;47.980;10.172;2023-09-18T02:24:17;2.97;;;2.53;;
7983;SDS011;4037;47.980;10.172;2023-09-18T02:26:44;3.23;;;2.60;;
7983;SDS011;4037;47.980;10.172;2023-09-18T02:29:10;3.60;;;2.83;;
7983;SDS011;4037;47.980;10.172;2023-09-18T02:31:38;3.27;;;2.97;;
7983;SDS011;4037;47.980;10.172;2023-09-18T02:34:04;8.07;;;2.80;;
7983;SDS011;4037;47.980;10.172;2023-09-18T02:36:30;3.00;;;2.70;;
7983;SDS011;4037;47.980;10.172;2023-09-18T02:38:56;4.27;;;3.03;;
7983;SDS011;4037;47.980;10.172;2023-09-18T02:41:22;4.33;;;2.77;;
7983;SDS011;4037;47.980;10.172;2023-09-18T02:43:48;4.37;;;3.00;;
7983;SDS011;4037;47.980;10.172;2023-09-18T02:46:14;4.73;;;2.83;;
7983;SDS011;4037;47.980;10.172;2023-09-18T02:48:40;3.80;;;2.60;;
7983;SDS011;4037;47.980;10.172;2023-09-18T02:51:06;5.87;;;3.23;;
7983;SDS011;4037;47.980;10.172;2023-09-18T02:53:32;3.97;;;2.77;;
7983;SDS011;4037;47.980;10.172;2023-09-18T02:55:59;4.37;;;3.17;;
7983;SDS011;4037;47.980;10.172;2023-09-18T02:58:25;3.40;;;2.90;;
7983;SDS011;4037;47.980;10.172;2023-09-18T03:00:53;4.50;;;2.80;;
7983;SDS011;4037;47.980;10.172;2023-09-18T03:03:20;4.30;;;3.03;;
7983;SDS011;4037;47.980;10.172;2023-09-18T03:05:46;2.70;;;2.50;;
7983;SDS011;4037;47.980;10.172;2023-09-18T03:08:13;3.07;;;2.70;;
7983;SDS011;4037;47.980;10.172;2023-09-18T03:10:40;4.70;;;2.80;;
7983;SDS011;4037;47.980;10.172;2023-09-18T03:13:06;2.57;;;2.30;;
7983;SDS011;4037;47.980;10.172;2023-09-18T03:15:33;5.20;;;2.60;;
7983;SDS011;4037;47.980;10.172;2023-09-18T03:17:59;4.07;;;2.63;;
7983;SDS011;4037;47.980;10.172;2023-09-18T03:20:26;3.67;;;2.70;;
7983;SDS011;4037;47.980;10.172;2023-09-18T03:22:53;5.17;;;2.77;;
7983;SDS011;4037;47.980;10.172;2023-09-18T03:25:19;6.10;;;3.10;;
7983;SDS011;4037;47.980;10.172;2023-09-18T03:27:46;3.10;;;2.43;;
7983;SDS011;4037;47.980;10.172;2023-09-18T03:30:12;3.20;;;2.33;;
7983;SDS011;4037;47.980;10.172;2023-09-18T03:32:40;3.27;;;2.77;;
7983;SDS011;4037;47.980;10.172;2023-09-18T03:35:07;4.67;;;2.83;;
7983;SDS011;4037;47.980;10.172;2023-09-18T03:37:34;3.23;;;1.90;;
7983;SDS011;4037;47.980;10.172;2023-09-18T03:40:00;2.77;;;2.53;;
7983;SDS011;4037;47.980;10.172;2023-09-18T03:42:27;3.43;;;2.20;;
7983;SDS011;4037;47.980;10.172;2023-09-18T03:44:53;4.13;;;2.43;;
7983;SDS011;4037;47.980;10.172;2023-09-18T03:47:19;4.80;;;2.50;;
7983;SDS011;4037;47.980;10.172;2023-09-18T03:49:45;4.83;;;2.83;;
7983;SDS011;4037;47.980;10.172;2023-09-18T03:52:11;2.90;;;2.60;;
7983;SDS011;4037;47.980;10.172;2023-09-18T03:54:37;3.77;;;2.53;;
7983;SDS011;4037;47.980;10.172;2023-09-18T03:57:03;4.27;;;2.27;;
7983;SDS011;4037;47.980;10.172;2023-09-18T03:59:29;4.20;;;2.30;;
7983;SDS011;4037;47.980;10.172;2023-09-18T04:01:55;5.43;;;2.60;;
7983;SDS011;4037;47.980;10.172;2023-09-18T04:04:21;3.77;;;2.90;;
7983;SDS011;4037;47.980;10.172;2023-09-18T04:06:47;3.33;;;2.57;;
7983;SDS011;4037;47.980;10.172;2023-09-18T04:09:14;3.30;;;2.30;;
7983;SDS011;4037;47.980;10.172;2023-09-18T04:11:40;3.33;;;2.47;;
7983;SDS011;4037;47.980;10.172;2023-09-18T04:14:06;3.50;;;2.33;;
7983;SDS011;4037;47.980;10.172;2023-09-18T04:16:33;3.73;;;2.50;;
7983;SDS011;4037;47.980;10.172;2023-09-18T04:19:03;4.27;;;2.57;;
7983;SDS011;4037;47.980;10.172;2023-09-18T04:21:29;2.50;;;2.20;;
7983;SDS011;4037;47.980;10.172;2023-09-18T04:23:55;3.17;;;2.47;;
7983;SDS011;4037;47.980;10.172;2023-09-18T04:26:23;3.77;;;3.03;;
7983;SDS011;4037;47.980;10.172;2023-09-18T04:28:54;3.47;;;2.37;;
7983;SDS011;4037;47.980;10.172;2023-09-18T04:31:20;5.33;;;2.50;;
7983;SDS011;4037;47.980;10.172;2023-09-18T04:33:46;5.30;;;2.37;;
7983;SDS011;4037;47.980;10.172;2023-09-18T04:36:12;2.57;;;2.37;;
7983;SDS011;4037;47.980;10.172;2023-09-18T04:38:38;2.50;;;2.27;;
7983;SDS011;4037;47.980;10.172;2023-09-18T04:41:04;2.90;;;2.20;;
7983;SDS011;4037;47.980;10.172;2023-09-18T04:43:33;3.20;;;2.27;;
7983;SDS011;4037;47.980;10.172;2023-09-18T04:45:59;5.43;;;2.43;;
7983;SDS011;4037;47.980;10.172;2023-09-18T04:48:25;8.40;;;3.57;;
7983;SDS011;4037;47.980;10.172;2023-09-18T04:50:51;3.57;;;2.57;;
7983;SDS011;4037;47.980;10.172;2023-09-18T04:53:17;3.20;;;2.40;;
7983;SDS011;4037;47.980;10.172;2023-09-18T04:55:43;3.53;;;2.30;;
7983;SDS011;4037;47.980;10.172;2023-09-18T04:58:11;5.30;;;2.60;;
7983;SDS011;4037;47.980;10.172;2023-09-18T05:00:37;10.23;;;2.80;;
7983;SDS011;4037;47.980;10.172;2023-09-18T05:03:03;6.47;;;2.50;;
7983;SDS011;4037;47.980;10.172;2023-09-18T05:05:30;4.43;;;2.63;;
7983;SDS011;4037;47.980;10.172;2023-09-18T05:07:56;2.17;;;1.90;;
7983;SDS011;4037;47.980;10.172;2023-09-18T05:10:22;3.70;;;2.47;;
7983;SDS011;4037;47.980;10.172;2023-09-18T05:12:48;2.73;;;2.37;;
7983;SDS011;4037;47.980;10.172;2023-09-18T05:15:15;3.60;;;2.20;;
7983;SDS011;4037;47.980;10.172;2023-09-18T05:17:42;7.27;;;2.93;;
7983;SDS011;4037;47.980;10.172;2023-09-18T05:20:10;3.03;;;2.20;;
7983;SDS011;4037;47.980;10.172;2023-09-18T05:22:41;3.33;;;2.33;;
7983;SDS011;4037;47.980;10.172;2023-09-18T05:25:07;6.40;;;2.33;;
7983;SDS011;4037;47.980;10.172;2023-09-18T05:27:35;4.90;;;2.60;;
7983;SDS011;4037;47.980;10.172;2023-09-18T05:30:01;3.70;;;2.67;;
7983;SDS011;4037;47.980;10.172;2023-09-18T05:32:27;4.67;;;2.83;;
7983;SDS011;4037;47.980;10.172;2023-09-18T05:34:53;5.23;;;2.57;;
7983;SDS011;4037;47.980;10.172;2023-09-18T05:37:19;3.30;;;2.70;;
7983;SDS011;4037;47.980;10.172;2023-09-18T05:39:45;3.13;;;2.33;;
7983;SDS011;4037;47.980;10.172;2023-09-18T05:42:11;4.93;;;2.80;;
7983;SDS011;4037;47.980;10.172;2023-09-18T05:44:37;3.33;;;2.80;;
7983;SDS011;4037;47.980;10.172;2023-09-18T05:47:04;5.47;;;3.13;;
7983;SDS011;4037;47.980;10.172;2023-09-18T05:49:30;5.47;;;2.60;;
7983;SDS011;4037;47.980;10.172;2023-09-18T05:51:56;2.90;;;2.60;;
7983;SDS011;4037;47.980;10.172;2023-09-18T05:54:22;4.30;;;2.30;;
7983;SDS011;4037;47.980;10.172;2023-09-18T05:56:48;4.00;;;2.80;;
7983;SDS011;4037;47.980;10.172;2023-09-18T05:59:14;4.20;;;2.20;;
7983;SDS011;4037;47.980;10.172;2023-09-18T06:01:41;5.43;;;2.70;;
7983;SDS011;4037;47.980;10.172;2023-09-18T06:04:07;5.07;;;2.97;;
7983;SDS011;4037;47.980;10.172;2023-09-18T06:06:33;3.80;;;2.73;;
7983;SDS011;4037;47.980;10.172;2023-09-18T06:08:59;6.73;;;2.70;;
7983;SDS011;4037;47.980;10.172;2023-09-18T06:11:25;6.40;;;3.23;;
7983;SDS011;4037;47.980;10.172;2023-09-18T06:13:51;3.77;;;2.70;;
7983;SDS011;4037;47.980;10.172;2023-09-18T06:16:17;4.80;;;2.40;;
7983;SDS011;4037;47.980;10.172;2023-09-18T06:18:43;5.30;;;2.50;;
7983;SDS011;4037;47.980;10.172;2023-09-18T06:21:10;6.63;;;3.33;;
7983;SDS011;4037;47.980;10.172;2023-09-18T06:23:36;5.80;;;2.50;;
7983;SDS011;4037;47.980;10.172;2023-09-18T06:26:02;3.77;;;2.80;;
7983;SDS011;4037;47.980;10.172;2023-09-18T06:28:29;5.90;;;2.90;;
7983;SDS011;4037;47.980;10.172;2023-09-18T06:30:55;6.40;;;2.73;;
7983;SDS011;4037;47.980;10.172;2023-09-18T06:33:22;5.63;;;2.97;;
7983;SDS011;4037;47.980;10.172;2023-09-18T06:35:48;5.53;;;2.73;;
7983;SDS011;4037;47.980;10.172;2023-09-18T06:38:16;7.13;;;3.03;;
7983;SDS011;4037;47.980;10.172;2023-09-18T06:40:42;5.53;;;2.80;;
7983;SDS011;4037;47.980;10.172;2023-09-18T06:43:08;4.97;;;2.37;;
7983;SDS011;4037;47.980;10.172;2023-09-18T06:45:34;9.00;;;2.67;;
7983;SDS011;4037;47.980;10.172;2023-09-18T06:48:03;7.70;;;2.87;;
7983;SDS011;4037;47.980;10.172;2023-09-18T06:50:29;8.83;;;4.07;;
7983;SDS011;4037;47.980;10.172;2023-09-18T06:52:55;7.07;;;2.50;;
7983;SDS011;4037;47.980;10.172;2023-09-18T06:55:21;4.10;;;2.60;;
7983;SDS011;4037;47.980;10.172;2023-09-18T06:57:47;9.03;;;2.87;;
7983;SDS011;4037;47.980;10.172;2023-09-18T07:00:15;7.60;;;3.17;;
7983;SDS011;4037;47.980;10.172;2023-09-18T07:02:43;3.77;;;2.33;;
7983;SDS011;4037;47.980;10.172;2023-09-18T07:05:09;6.70;;;2.67;;
7983;SDS011;4037;47.980;10.172;2023-09-18T07:07:35;7.30;;;3.00;;
7983;SDS011;4037;47.980;10.172;2023-09-18T07:10:01;6.50;;;2.40;;
7983;SDS011;4037;47.980;10.172;2023-09-18T07:12:27;10.00;;;2.80;;
7983;SDS011;4037;47.980;10.172;2023-09-18T07:14:53;7.93;;;2.60;;
7983;SDS011;4037;47.980;10.172;2023-09-18T07:17:19;6.47;;;2.87;;
7983;SDS011;4037;47.980;10.172;2023-09-18T07:19:45;8.90;;;3.30;;
7983;SDS011;4037;47.980;10.172;2023-09-18T07:22:11;4.33;;;2.43;;
7983;SDS011;4037;47.980;10.172;2023-09-18T07:24:37;4.43;;;2.37;;
7983;SDS011;4037;47.980;10.172;2023-09-18T07:27:06;5.67;;;2.40;;
7983;SDS011;4037;47.980;10.172;2023-09-18T07:29:31;8.00;;;2.97;;
7983;SDS011;4037;47.980;10.172;2023-09-18T07:31:59;6.97;;;3.07;;
7983;SDS011;4037;47.980;10.172;2023-09-18T07:34:26;4.60;;;2.73;;
7983;SDS011;4037;47.980;10.172;2023-09-18T07:36:52;5.70;;;2.80;;
7983;SDS011;4037;47.980;10.172;2023-09-18T07:39:20;9.00;;;2.80;;
7983;SDS011;4037;47.980;10.172;2023-09-18T07:41:46;8.57;;;2.97;;
7983;SDS011;4037;47.980;10.172;2023-09-18T07:44:19;4.37;;;2.70;;
7983;SDS011;4037;47.980;10.172;2023-09-18T07:46:45;5.43;;;2.70;;
7983;SDS011;4037;47.980;10.172;2023-09-18T07:49:11;5.37;;;2.80;;
7983;SDS011;4037;47.980;10.172;2023-09-18T07:51:37;4.67;;;2.57;;
7983;SDS011;4037;47.980;10.172;2023-09-18T07:54:03;5.87;;;2.73;;
7983;SDS011;4037;47.980;10.172;2023-09-18T07:56:29;8.10;;;3.10;;
7983;SDS011;4037;47.980;10.172;2023-09-18T07:58:58;7.97;;;3.00;;
7983;SDS011;4037;47.980;10.172;2023-09-18T08:01:24;8.23;;;3.40;;
7983;SDS011;4037;47.980;10.172;2023-09-18T08:03:50;7.10;;;3.30;;
7983;SDS011;4037;47.980;10.172;2023-09-18T08:06:16;8.00;;;3.07;;
7983;SDS011;4037;47.980;10.172;2023-09-18T08:08:44;6.73;;;3.37;;
7983;SDS011;4037;47.980;10.172;2023-09-18T08:11:10;9.70;;;3.30;;
7983;SDS011;4037;47.980;10.172;2023-09-18T08:13:36;4.97;;;2.90;;
7983;SDS011;4037;47.980;10.172;2023-09-18T08:16:05;8.97;;;3.47;;
7983;SDS011;4037;47.980;10.172;2023-09-18T08:18:31;7.33;;;3.47;;
7983;SDS011;4037;47.980;10.172;2023-09-18T08:20:57;9.07;;;3.53;;
7983;SDS011;4037;47.980;10.172;2023-09-18T08:23:26;6.33;;;2.60;;
7983;SDS011;4037;47.980;10.172;2023-09-18T08:25:52;5.00;;;3.40;;
7983;SDS011;4037;47.980;10.172;2023-09-18T08:28:22;6.40;;;2.93;;
7983;SDS011;4037;47.980;10.172;2023-09-18T08:30:48;5.27;;;2.97;;
7983;SDS011;4037;47.980;10.172;2023-09-18T08:33:14;9.47;;;3.27;;
7983;SDS011;4037;47.980;10.172;2023-09-18T08:35:40;6.60;;;3.70;;
7983;SDS011;4037;47.980;10.172;2023-09-18T08:38:06;8.93;;;2.70;;
7983;SDS011;4037;47.980;10.172;2023-09-18T08:40:33;10.10;;;3.03;;
7983;SDS011;4037;47.980;10.172;2023-09-18T08:43:00;7.43;;;2.43;;
7983;SDS011;4037;47.980;10.172;2023-09-18T08:47:54;7.17;;;2.43;;
7983;SDS011;4037;47.980;10.172;2023-09-18T08:50:21;10.43;;;3.10;;
7983;SDS011;4037;47.980;10.172;2023-09-18T08:52:47;3.83;;;2.03;;
7983;SDS011;4037;47.980;10.172;2023-09-18T08:55:15;5.70;;;2.10;;
7983;SDS011;4037;47.980;10.172;2023-09-18T08:57:41;3.17;;;2.13;;
7983;SDS011;4037;47.980;10.172;2023-09-18T09:00:08;3.93;;;2.17;;
7983;SDS011;4037;47.980;10.172;2023-09-18T09:02:36;7.10;;;1.93;;
7983;SDS011;4037;47.980;10.172;2023-09-18T09:05:03;5.20;;;1.90;;
7983;SDS011;4037;47.980;10.172;2023-09-18T09:07:29;4.17;;;1.80;;
7983;SDS011;4037;47.980;10.172;2023-09-18T09:09:56;4.50;;;1.47;;
7983;SDS011;4037;47.980;10.172;2023-09-18T09:13:07;3.67;;;1.77;;
7983;SDS011;4037;47.980;10.172;2023-09-18T09:15:08;4.43;;;1.60;;
7983;SDS011;4037;47.980;10.172;2023-09-18T09:17:35;2.40;;;2.00;;
7983;SDS011;4037;47.980;10.172;2023-09-18T09:20:11;4.97;;;1.40;;
7983;SDS011;4037;47.980;10.172;2023-09-18T09:22:38;4.37;;;1.73;;
7983;SDS011;4037;47.980;10.172;2023-09-18T09:25:21;4.13;;;1.50;;
7983;SDS011;4037;47.980;10.172;2023-09-18T09:27:48;4.20;;;2.20;;
7983;SDS011;4037;47.980;10.172;2023-09-18T09:30:24;3.43;;;1.60;;
7983;SDS011;4037;47.980;10.172;2023-09-18T09:32:51;2.80;;;1.40;;
7983;SDS011;4037;47.980;10.172;2023-09-18T09:35:21;1.50;;;1.30;;
7983;SDS011;4037;47.980;10.172;2023-09-18T09:37:48;3.40;;;1.53;;
7983;SDS011;4037;47.980;10.172;2023-09-18T09:40:15;2.63;;;1.57;;
7983;SDS011;4037;47.980;10.172;2023-09-18T09:42:41;1.73;;;1.30;;
7983;SDS011;4037;47.980;10.172;2023-09-18T09:45:11;4.00;;;1.47;;
7983;SDS011;4037;47.980;10.172;2023-09-18T09:47:37;2.40;;;1.20;;
7983;SDS011;4037;47.980;10.172;2023-09-18T09:50:13;2.83;;;1.40;;
7983;SDS011;4037;47.980;10.172;2023-09-18T09:52:44;2.67;;;1.40;;
7983;SDS011;4037;47.980;10.172;2023-09-18T09:57:49;4.17;;;1.60;;
7983;SDS011;4037;47.980;10.172;2023-09-18T10:00:15;3.97;;;1.50;;
7983;SDS011;4037;47.980;10.172;2023-09-18T10:02:57;6.70;;;1.70;;
7983;SDS011;4037;47.980;10.172;2023-09-18T10:05:27;4.47;;;1.90;;
7983;SDS011;4037;47.980;10.172;2023-09-18T10:07:55;3.13;;;1.63;;
7983;SDS011;4037;47.980;10.172;2023-09-18T10:10:24;5.97;;;1.80;;
7983;SDS011;4037;47.980;10.172;2023-09-18T10:12:50;5.70;;;1.67;;
7983;SDS011;4037;47.980;10.172;2023-09-18T10:15:16;4.03;;;1.67;;
7983;SDS011;4037;47.980;10.172;2023-09-18T10:17:43;2.37;;;1.53;;
7983;SDS011;4037;47.980;10.172;2023-09-18T10:20:12;5.40;;;2.03;;
7983;SDS011;4037;47.980;10.172;2023-09-18T10:22:52;2.40;;;1.63;;
7983;SDS011;4037;47.980;10.172;2023-09-18T10:25:20;2.30;;;1.70;;
7983;SDS011;4037;47.980;10.172;2023-09-18T10:27:48;6.13;;;1.90;;
7983;SDS011;4037;47.980;10.172;2023-09-18T10:30:14;4.37;;;1.63;;
7983;SDS011;4037;47.980;10.172;2023-09-18T10:32:43;5.33;;;1.97;;
7983;SDS011;4037;47.980;10.172;2023-09-18T10:35:13;7.90;;;1.80;;
7983;SDS011;4037;47.980;10.172;2023-09-18T10:37:41;4.73;;;1.87;;
7983;SDS011;4037;47.980;10.172;2023-09-18T10:40:10;5.40;;;1.90;;
7983;SDS011;4037;47.980;10.172;2023-09-18T10:42:41;4.53;;;1.70;;
7983;SDS011;4037;47.980;10.172;2023-09-18T10:45:08;3.93;;;1.87;;
7983;SDS011;4037;47.980;10.172;2023-09-18T10:47:38;2.60;;;1.80;;
7983;SDS011;4037;47.980;10.172;2023-09-18T10:50:05;3.30;;;1.80;;
7983;SDS011;4037;47.980;10.172;2023-09-18T10:52:32;2.93;;;1.60;;
7983;SDS011;4037;47.980;10.172;2023-09-18T10:54:58;2.40;;;1.53;;
7983;SDS011;4037;47.980;10.172;2023-09-18T10:57:24;2.37;;;1.50;;
7983;SDS011;4037;47.980;10.172;2023-09-18T10:59:50;4.70;;;1.40;;
7983;SDS011;4037;47.980;10.172;2023-09-18T11:02:20;2.20;;;1.17;;
7983;SDS011;4037;47.980;10.172;2023-09-18T11:04:46;5.63;;;1.27;;
7983;SDS011;4037;47.980;10.172;2023-09-18T11:07:20;2.63;;;1.30;;
7983;SDS011;4037;47.980;10.172;2023-09-18T11:09:46;4.70;;;2.27;;
7983;SDS011;4037;47.980;10.172;2023-09-18T11:12:14;2.20;;;1.73;;
7983;SDS011;4037;47.980;10.172;2023-09-18T11:17:06;2.13;;;1.50;;
7983;SDS011;4037;47.980;10.172;2023-09-18T11:22:47;2.10;;;1.20;;
7983;SDS011;4037;47.980;10.172;2023-09-18T11:28:08;2.67;;;1.40;;
7983;SDS011;4037;47.980;10.172;2023-09-18T11:30:38;1.60;;;1.13;;
7983;SDS011;4037;47.980;10.172;2023-09-18T11:33:13;2.30;;;1.20;;
7983;SDS011;4037;47.980;10.172;2023-09-18T11:35:39;2.47;;;1.60;;
7983;SDS011;4037;47.980;10.172;2023-09-18T11:38:17;2.10;;;1.40;;
7983;SDS011;4037;47.980;10.172;2023-09-18T11:40:43;2.37;;;1.33;;
7983;SDS011;4037;47.980;10.172;2023-09-18T11:43:26;1.17;;;1.07;;
7983;SDS011;4037;47.980;10.172;2023-09-18T11:45:56;1.33;;;1.20;;
7983;SDS011;4037;47.980;10.172;2023-09-18T11:48:23;2.47;;;1.10;;
7983;SDS011;4037;47.980;10.172;2023-09-18T11:50:52;1.57;;;1.23;;
7983;SDS011;4037;47.980;10.172;2023-09-18T11:53:19;1.87;;;1.30;;
7983;SDS011;4037;47.980;10.172;2023-09-18T11:55:46;3.13;;;1.17;;
7983;SDS011;4037;47.980;10.172;2023-09-18T11:58:12;2.03;;;1.30;;
7983;SDS011;4037;47.980;10.172;2023-09-18T12:00:38;1.40;;;1.30;;
7983;SDS011;4037;47.980;10.172;2023-09-18T12:05:55;3.10;;;1.47;;
7983;SDS011;4037;47.980;10.172;2023-09-18T12:08:22;1.77;;;1.43;;
7983;SDS011;4037;47.980;10.172;2023-09-18T12:10:51;2.37;;;1.30;;
7983;SDS011;4037;47.980;10.172;2023-09-18T12:13:17;1.80;;;1.40;;
7983;SDS011;4037;47.980;10.172;2023-09-18T12:15:43;2.23;;;1.60;;
7983;SDS011;4037;47.980;10.172;2023-09-18T12:18:10;4.30;;;1.80;;
7983;SDS011;4037;47.980;10.172;2023-09-18T12:20:46;2.33;;;1.53;;
7983;SDS011;4037;47.980;10.172;2023-09-18T12:23:12;3.27;;;1.67;;
7983;SDS011;4037;47.980;10.172;2023-09-18T12:25:39;1.47;;;1.30;;
7983;SDS011;4037;47.980;10.172;2023-09-18T12:28:08;1.53;;;1.20;;
7983;SDS011;4037;47.980;10.172;2023-09-18T12:30:34;3.70;;;1.80;;
7983;SDS011;4037;47.980;10.172;2023-09-18T12:33:00;1.30;;;1.20;;
7983;SDS011;4037;47.980;10.172;2023-09-18T12:35:28;1.50;;;1.07;;
7983;SDS011;4037;47.980;10.172;2023-09-18T12:37:58;2.73;;;1.20;;
7983;SDS011;4037;47.980;10.172;2023-09-18T12:40:26;3.30;;;1.57;;
7983;SDS011;4037;47.980;10.172;2023-09-18T12:42:53;2.53;;;1.37;;
7983;SDS011;4037;47.980;10.172;2023-09-18T12:45:19;2.00;;;1.33;;
7983;SDS011;4037;47.980;10.172;2023-09-18T12:47:46;1.97;;;1.67;;
7983;SDS011;4037;47.980;10.172;2023-09-18T12:50:12;1.33;;;1.00;;
7983;SDS011;4037;47.980;10.172;2023-09-18T12:52:39;3.20;;;1.30;;
7983;SDS011;4037;47.980;10.172;2023-09-18T12:55:05;1.40;;;0.93;;
7983;SDS011;4037;47.980;10.172;2023-09-18T12:57:32;2.00;;;1.23;;
7983;SDS011;4037;47.980;10.172;2023-09-18T12:59:58;1.60;;;1.30;;
7983;SDS011;4037;47.980;10.172;2023-09-18T13:02:24;1.60;;;1.30;;
7983;SDS011;4037;47.980;10.172;2023-09-18T13:04:54;1.90;;;1.47;;
7983;SDS011;4037;47.980;10.172;2023-09-18T13:07:20;1.80;;;1.30;;
7983;SDS011;4037;47.980;10.172;2023-09-18T13:09:59;1.27;;;1.17;;
7983;SDS011;4037;47.980;10.172;2023-09-18T13:15:10;1.67;;;1.40;;
7983;SDS011;4037;47.980;10.172;2023-09-18T13:17:46;2.97;;;1.40;;
7983;SDS011;4037;47.980;10.172;2023-09-18T13:22:40;1.50;;;1.23;;
7983;SDS011;4037;47.980;10.172;2023-09-18T13:25:09;2.70;;;1.00;;
7983;SDS011;4037;47.980;10.172;2023-09-18T13:27:38;1.60;;;1.00;;
7983;SDS011;4037;47.980;10.172;2023-09-18T13:30:08;1.30;;;1.00;;
7983;SDS011;4037;47.980;10.172;2023-09-18T13:32:35;1.20;;;1.10;;
7983;SDS011;4037;47.980;10.172;2023-09-18T13:35:02;1.33;;;1.23;;
7983;SDS011;4037;47.980;10.172;2023-09-18T13:37:30;2.10;;;1.20;;
7983;SDS011;4037;47.980;10.172;2023-09-18T13:39:56;2.50;;;1.17;;
7983;SDS011;4037;47.980;10.172;2023-09-18T13:42:22;2.20;;;0.90;;
7983;SDS011;4037;47.980;10.172;2023-09-18T13:44:51;1.63;;;0.90;;
7983;SDS011;4037;47.980;10.172;2023-09-18T13:47:18;2.37;;;1.00;;
7983;SDS011;4037;47.980;10.172;2023-09-18T13:49:44;1.60;;;1.20;;
7983;SDS011;4037;47.980;10.172;2023-09-18T13:52:11;2.67;;;1.10;;
7983;SDS011;4037;47.980;10.172;2023-09-18T13:54:37;2.17;;;1.00;;
7983;SDS011;4037;47.980;10.172;2023-09-18T13:57:03;0.77;;;0.73;;
7983;SDS011;4037;47.980;10.172;2023-09-18T13:59:29;1.30;;;1.20;;
7983;SDS011;4037;47.980;10.172;2023-09-18T14:01:55;1.10;;;1.00;;
7983;SDS011;4037;47.980;10.172;2023-09-18T14:04:22;2.73;;;1.73;;
7983;SDS011;4037;47.980;10.172;2023-09-18T14:06:48;1.57;;;1.03;;
7983;SDS011;4037;47.980;10.172;2023-09-18T14:09:14;1.40;;;0.90;;
7983;SDS011;4037;47.980;10.172;2023-09-18T14:11:42;1.90;;;1.10;;
7983;SDS011;4037;47.980;10.172;2023-09-18T14:14:08;0.83;;;0.80;;
7983;SDS011;4037;47.980;10.172;2023-09-18T14:16:34;0.70;;;0.70;;
7983;SDS011;4037;47.980;10.172;2023-09-18T14:19:00;2.13;;;1.10;;
7983;SDS011;4037;47.980;10.172;2023-09-18T14:21:26;1.47;;;1.10;;
7983;SDS011;4037;47.980;10.172;2023-09-18T14:23:54;1.40;;;0.93;;
7983;SDS011;4037;47.980;10.172;2023-09-18T14:26:20;0.80;;;0.80;;
7983;SDS011;4037;47.980;10.172;2023-09-18T14:28:46;0.83;;;0.70;;
7983;SDS011;4037;47.980;10.172;2023-09-18T14:31:12;2.07;;;0.80;;
7983;SDS011;4037;47.980;10.172;2023-09-18T14:33:38;1.10;;;0.90;;
7983;SDS011;4037;47.980;10.172;2023-09-18T14:36:05;1.37;;;0.87;;
7983;SDS011;4037;47.980;10.172;2023-09-18T14:38:31;1.07;;;0.90;;
7983;SDS011;4037;47.980;10.172;2023-09-18T14:40:57;1.13;;;1.03;;
7983;SDS011;4037;47.980;10.172;2023-09-18T14:43:27;1.33;;;1.00;;
7983;SDS011;4037;47.980;10.172;2023-09-18T14:45:53;1.10;;;1.00;;
7983;SDS011;4037;47.980;10.172;2023-09-18T14:48:23;1.00;;;0.83;;
7983;SDS011;4037;47.980;10.172;2023-09-18T14:50:55;1.10;;;0.97;;
7983;SDS011;4037;47.980;10.172;2023-09-18T14:53:21;1.40;;;0.93;;
7983;SDS011;4037;47.980;10.172;2023-09-18T14:55:48;1.20;;;1.00;;
7983;SDS011;4037;47.980;10.172;2023-09-18T14:58:14;0.80;;;0.80;;
7983;SDS011;4037;47.980;10.172;2023-09-18T15:00:40;1.50;;;1.00;;
7983;SDS011;4037;47.980;10.172;2023-09-18T15:03:06;1.83;;;0.80;;
7983;SDS011;4037;47.980;10.172;2023-09-18T15:05:32;1.90;;;0.87;;
7983;SDS011;4037;47.980;10.172;2023-09-18T15:07:58;2.17;;;1.00;;
7983;SDS011;4037;47.980;10.172;2023-09-18T15:10:24;1.13;;;1.03;;
7983;SDS011;4037;47.980;10.172;2023-09-18T15:12:50;1.30;;;0.80;;
7983;SDS011;4037;47.980;10.172;2023-09-18T15:15:16;1.73;;;0.83;;
7983;SDS011;4037;47.980;10.172;2023-09-18T15:17:43;3.63;;;1.37;;
7983;SDS011;4037;47.980;10.172;2023-09-18T15:20:09;0.93;;;0.80;;
7983;SDS011;4037;47.980;10.172;2023-09-18T15:22:37;2.10;;;0.90;;